Terminal Aerodrome Forecast
Issued by NWS

Home | Current Version | Previous Version | Text Only | Print | Product List | Glossary On
Versions: 1 2 3 4 5 6 7 8 9 10 11 12 13 14 15 16 17 18 19 20 21 22 23 24 25 26 27 28 29 30 31 32 33 34 35 36 37 38 39 40 41 42 43 44 45 46 47 48 49 50
000
FTUS41 KAKQ 230714 AAA
TAFPHF
TAF AMD
KPHF 230714Z 2307/2406 23010KT 6SM -SHRA VCTS BKN050CB
     FM231100 24009KT 5SM -SHRA BKN045
     FM231400 26010KT 5SM -SHRA BKN030
     FM231700 33009KT 3SM SHRA OVC020
     FM232000 36008KT 3SM -SHRA OVC012
     FM240300 34004KT 6SM -SHRA OVC012=

USA.gov is the U.S. government's official web portal to all federal, state and local government web resources and services.